Syosyun — JD2406 — position and weather

sailwx.info

Track history (hours):
 
Tides and Currents Weather Stations Pressure Air Temp Water Temp Dewpoint Dewpoint Depression Visibility Wind Speed Wind Dir Waves Ship Positions

Syosyun

Last reported at 2017-Apr-15 12:12 UTC. Time now 2017-Apr-24 03:36 UTC.
Position N 34°53' E 139°49'.
Warning: this ship's position is 8 days out of date.

Length 74 m; draft 4.7 m.

Type: Cargo ship. MMSI: 431000201.

Date/timePositionNaut miles runAvg speedWind from/ knotsBaromVisibWave heightAir tempDewpointWater temp
2017-Apr-15 12:12N 34°53' E 139°49'212.2
2017-Apr-15 12:00N 34°55' E 139°46'611.7
2017-Apr-15 11:30N 34°60' E 139°43'510.8
2017-Apr-15 11:00N 35°05' E 139°45'510.9
2017-Apr-15 10:30N 35°10' E 139°46'510.7
2017-Apr-15 10:00N 35°16' E 139°46'510.6
2017-Apr-15 09:30N 35°20' E 139°43'5 9.8
2017-Apr-15 09:00N 35°25' E 139°44'510.3
2017-Apr-15 08:30N 35°28' E 139°49'510.0
2017-Apr-15 08:00N 35°31' E 139°54'510.2
2017-Apr-15 07:30N 35°33' E 140°00'5 0.2
2017-Apr-14 07:24N 35°33' E 140°07'3 6.9
2017-Apr-14 06:58N 35°34' E 140°03'1 0.9
2017-Apr-14 06:24N 35°33' E 140°02'0 0.0
2017-Apr-14 06:00N 35°33' E 140°02'0 0.0
2017-Apr-14 05:30N 35°33' E 140°02'0 0.0
2017-Apr-14 05:01N 35°33' E 140°02'0 0.0
2017-Apr-14 04:24N 35°33' E 140°02'0 0.0
2017-Apr-14 04:01N 35°33' E 140°02'2 0.4
2017-Apr-13 22:26N 35°33' E 140°00'510.6
2017-Apr-13 22:00N 35°31' E 139°55'510.7
2017-Apr-13 21:30N 35°28' E 139°50'510.7
2017-Apr-13 21:00N 35°23' E 139°46'510.5
2017-Apr-13 20:30N 35°18' E 139°44'510.7
2017-Apr-13 20:00N 35°13' E 139°47'510.9
2017-Apr-13 19:30N 35°08' E 139°46'510.5
2017-Apr-13 19:01N 35°04' E 139°43'610.8
2017-Apr-13 18:29N 35°00' E 139°37'511.0
2017-Apr-13 18:00N 34°57' E 139°32'  
2017-Apr-08 05:48N 34°34' E 134°49'410.9
2017-Apr-08 05:26N 34°36' E 134°54'410.4
2017-Apr-08 05:00N 34°37' E 134°59'4 8.5
2017-Apr-08 04:30N 34°36' E 135°03'510.7
2017-Apr-08 04:00N 34°35' E 135°10'611.3
2017-Apr-08 03:30N 34°33' E 135°16'510.7
2017-Apr-08 03:00N 34°33' E 135°23'2 1.3
2017-Apr-08 01:15N 34°31' E 135°24'0 0.0
2017-Apr-08 00:39N 34°31' E 135°24'0 0.0
2017-Apr-08 00:15N 34°31' E 135°24'0 0.0
2017-Apr-07 23:57N 34°31' E 135°24'0 0.0
2017-Apr-07 23:21N 34°31' E 135°24'0 0.0
2017-Apr-07 22:51N 34°31' E 135°24'0 0.0
2017-Apr-07 22:27N 34°31' E 135°24'0 0.0
2017-Apr-07 21:51N 34°31' E 135°24'0 0.0
2017-Apr-07 21:27N 34°31' E 135°24'0 0.0
2017-Apr-07 20:57N 34°31' E 135°24'0 0.0
2017-Apr-07 20:21N 34°31' E 135°24'0 0.0
2017-Apr-07 19:57N 34°31' E 135°24'0 0.0
2017-Apr-07 19:27N 34°31' E 135°24'0 0.0
2017-Apr-07 18:57N 34°31' E 135°24'0 0.0
2017-Apr-07 18:27N 34°31' E 135°24'0 0.0
2017-Apr-07 17:57N 34°31' E 135°24'0 0.0
2017-Apr-07 17:27N 34°31' E 135°24'0 0.0
2017-Apr-07 16:57N 34°31' E 135°24'0 0.0
2017-Apr-07 16:27N 34°31' E 135°24'0 0.0
2017-Apr-07 15:57N 34°31' E 135°24'0 0.0
2017-Apr-07 15:27N 34°31' E 135°24'0 0.0
2017-Apr-07 14:39N 34°31' E 135°24'0 0.0
2017-Apr-07 13:57N 34°31' E 135°24'0 0.0
2017-Apr-07 13:27N 34°31' E 135°24'0 0.0
2017-Apr-07 12:57N 34°31' E 135°24'0 0.0
2017-Apr-07 12:21N 34°31' E 135°24'0 0.0
2017-Apr-07 11:51N 34°31' E 135°24'0 0.0
2017-Apr-07 11:27N 34°31' E 135°24'0 0.0
2017-Apr-07 10:39N 34°31' E 135°24'0 0.0
2017-Apr-07 10:21N 34°31' E 135°24'0 0.0
2017-Apr-07 09:57N 34°31' E 135°24'0 0.0
2017-Apr-06 20:42N 34°31' E 135°24'0 0.0
2017-Apr-06 19:30N 34°31' E 135°24'0 0.0
2017-Apr-06 18:36N 34°31' E 135°24'0 0.0
2017-Apr-06 18:30N 34°31' E 135°24'0 0.0
2017-Apr-06 17:36N 34°31' E 135°24'0 0.0
2017-Apr-06 17:23N 34°31' E 135°24'0 0.0
2017-Apr-06 16:41N 34°31' E 135°24'0 0.0
2017-Apr-06 16:11N 34°31' E 135°24'0 0.0
2017-Apr-06 16:00N 34°31' E 135°24'0 0.0
2017-Apr-06 15:18N 34°31' E 135°24'0 0.0
2017-Apr-06 14:54N 34°31' E 135°24'0 0.0
2017-Apr-06 14:29N 34°31' E 135°24'0 0.0
2017-Apr-05 22:23N 34°31' E 135°24'0 0.0
2017-Apr-05 21:53N 34°31' E 135°24'0 0.0
2017-Apr-05 21:29N 34°31' E 135°24'0 0.0
2017-Apr-05 17:05N 34°31' E 135°24'0 0.0
2017-Apr-05 16:53N 34°31' E 135°24'0 0.0
2017-Apr-05 16:23N 34°31' E 135°24'  
Track history (hours):
 
Tides and Currents Weather Stations Pressure Air Temp Water Temp Dewpoint Dewpoint Depression Visibility Wind Speed Wind Dir Waves Ship Positions

Syosyun

Last reported at 2017-Apr-15 12:12 UTC. Time now 2017-Apr-24 03:36 UTC.
Position N 34°53' E 139°49'.
Warning: this ship's position is 8 days out of date.

Length 74 m; draft 4.7 m.

Type: Cargo ship. MMSI: 431000201.

Date/timePositionNaut miles runAvg speedWind from/ knotsBaromVisibWave heightAir tempDewpointWater temp
2017-Apr-15 12:12N 34°53' E 139°49'212.2
2017-Apr-15 12:00N 34°55' E 139°46'611.7
2017-Apr-15 11:30N 34°60' E 139°43'510.8
2017-Apr-15 11:00N 35°05' E 139°45'510.9
2017-Apr-15 10:30N 35°10' E 139°46'510.7
2017-Apr-15 10:00N 35°16' E 139°46'510.6
2017-Apr-15 09:30N 35°20' E 139°43'5 9.8
2017-Apr-15 09:00N 35°25' E 139°44'510.3
2017-Apr-15 08:30N 35°28' E 139°49'510.0
2017-Apr-15 08:00N 35°31' E 139°54'510.2
2017-Apr-15 07:30N 35°33' E 140°00'5 0.2
2017-Apr-14 07:24N 35°33' E 140°07'3 6.9
2017-Apr-14 06:58N 35°34' E 140°03'1 0.9
2017-Apr-14 06:24N 35°33' E 140°02'0 0.0
2017-Apr-14 06:00N 35°33' E 140°02'0 0.0
2017-Apr-14 05:30N 35°33' E 140°02'0 0.0
2017-Apr-14 05:01N 35°33' E 140°02'0 0.0
2017-Apr-14 04:24N 35°33' E 140°02'0 0.0
2017-Apr-14 04:01N 35°33' E 140°02'2 0.4
2017-Apr-13 22:26N 35°33' E 140°00'510.6
2017-Apr-13 22:00N 35°31' E 139°55'510.7
2017-Apr-13 21:30N 35°28' E 139°50'510.7
2017-Apr-13 21:00N 35°23' E 139°46'510.5
2017-Apr-13 20:30N 35°18' E 139°44'510.7
2017-Apr-13 20:00N 35°13' E 139°47'510.9
2017-Apr-13 19:30N 35°08' E 139°46'510.5
2017-Apr-13 19:01N 35°04' E 139°43'610.8
2017-Apr-13 18:29N 35°00' E 139°37'511.0
2017-Apr-13 18:00N 34°57' E 139°32'  
2017-Apr-08 05:48N 34°34' E 134°49'410.9
2017-Apr-08 05:26N 34°36' E 134°54'410.4
2017-Apr-08 05:00N 34°37' E 134°59'4 8.5
2017-Apr-08 04:30N 34°36' E 135°03'510.7
2017-Apr-08 04:00N 34°35' E 135°10'611.3
2017-Apr-08 03:30N 34°33' E 135°16'510.7
2017-Apr-08 03:00N 34°33' E 135°23'2 1.3
2017-Apr-08 01:15N 34°31' E 135°24'0 0.0
2017-Apr-08 00:39N 34°31' E 135°24'0 0.0
2017-Apr-08 00:15N 34°31' E 135°24'0 0.0
2017-Apr-07 23:57N 34°31' E 135°24'0 0.0
2017-Apr-07 23:21N 34°31' E 135°24'0 0.0
2017-Apr-07 22:51N 34°31' E 135°24'0 0.0
2017-Apr-07 22:27N 34°31' E 135°24'0 0.0
2017-Apr-07 21:51N 34°31' E 135°24'0 0.0
2017-Apr-07 21:27N 34°31' E 135°24'0 0.0
2017-Apr-07 20:57N 34°31' E 135°24'0 0.0
2017-Apr-07 20:21N 34°31' E 135°24'0 0.0
2017-Apr-07 19:57N 34°31' E 135°24'0 0.0
2017-Apr-07 19:27N 34°31' E 135°24'0 0.0
2017-Apr-07 18:57N 34°31' E 135°24'0 0.0
2017-Apr-07 18:27N 34°31' E 135°24'0 0.0
2017-Apr-07 17:57N 34°31' E 135°24'0 0.0
2017-Apr-07 17:27N 34°31' E 135°24'0 0.0
2017-Apr-07 16:57N 34°31' E 135°24'0 0.0
2017-Apr-07 16:27N 34°31' E 135°24'0 0.0
2017-Apr-07 15:57N 34°31' E 135°24'0 0.0
2017-Apr-07 15:27N 34°31' E 135°24'0 0.0
2017-Apr-07 14:39N 34°31' E 135°24'0 0.0
2017-Apr-07 13:57N 34°31' E 135°24'0 0.0
2017-Apr-07 13:27N 34°31' E 135°24'0 0.0
2017-Apr-07 12:57N 34°31' E 135°24'0 0.0
2017-Apr-07 12:21N 34°31' E 135°24'0 0.0
2017-Apr-07 11:51N 34°31' E 135°24'0 0.0
2017-Apr-07 11:27N 34°31' E 135°24'0 0.0
2017-Apr-07 10:39N 34°31' E 135°24'0 0.0
2017-Apr-07 10:21N 34°31' E 135°24'0 0.0
2017-Apr-07 09:57N 34°31' E 135°24'0 0.0
2017-Apr-06 20:42N 34°31' E 135°24'0 0.0
2017-Apr-06 19:30N 34°31' E 135°24'0 0.0
2017-Apr-06 18:36N 34°31' E 135°24'0 0.0
2017-Apr-06 18:30N 34°31' E 135°24'0 0.0
2017-Apr-06 17:36N 34°31' E 135°24'0 0.0
2017-Apr-06 17:23N 34°31' E 135°24'0 0.0
2017-Apr-06 16:41N 34°31' E 135°24'0 0.0
2017-Apr-06 16:11N 34°31' E 135°24'0 0.0
2017-Apr-06 16:00N 34°31' E 135°24'0 0.0
2017-Apr-06 15:18N 34°31' E 135°24'0 0.0
2017-Apr-06 14:54N 34°31' E 135°24'0 0.0
2017-Apr-06 14:29N 34°31' E 135°24'0 0.0
2017-Apr-05 22:23N 34°31' E 135°24'0 0.0
2017-Apr-05 21:53N 34°31' E 135°24'0 0.0
2017-Apr-05 21:29N 34°31' E 135°24'0 0.0
2017-Apr-05 17:05N 34°31' E 135°24'0 0.0
2017-Apr-05 16:53N 34°31' E 135°24'0 0.0
2017-Apr-05 16:23N 34°31' E 135°24'  

Dump ship's entire track history